Time;durP1;ratioP1;P1;durP2;ratioP2;P2;SDS_P1;SDS_P2;PMS_P1;PMS_P2;Temp;Humidity;BMP_temperature;BMP_pressure;BME280_temperature;BME280_humidity;BME280_pressure;Samples;Min_cycle;Max_cycle;Signal;HPM_P1;HPM_P2
2023/08/10 00:00:24;;;;;;;1.80;1.70;;;24.10;63.30;;;;;;5066287;28;20029;-35
2023/08/10 00:02:51;;;;;;;1.95;1.80;;;24.10;63.80;;;;;;5066242;28;20036;-35
2023/08/10 00:05:17;;;;;;;1.77;1.67;;;24.10;63.60;;;;;;5060639;28;20059;-35
2023/08/10 00:07:43;;;;;;;2.00;1.90;;;24.10;64.00;;;;;;5062438;28;20089;-34
2023/08/10 00:10:10;;;;;;;1.60;1.50;;;24.10;64.40;;;;;;5057963;28;20049;-34
2023/08/10 00:12:37;;;;;;;1.80;1.70;;;24.00;63.80;;;;;;5059055;28;20059;-35
2023/08/10 00:15:05;;;;;;;2.30;1.73;;;24.00;63.80;;;;;;5061999;28;20052;-35
2023/08/10 00:17:32;;;;;;;2.20;2.00;;;24.00;64.00;;;;;;5065033;28;20056;-35
2023/08/10 00:19:58;;;;;;;1.90;1.80;;;24.00;63.40;;;;;;5063945;28;20354;-35
2023/08/10 00:22:24;;;;;;;1.92;1.83;;;24.00;62.80;;;;;;5079225;28;20036;-34
2023/08/10 00:24:50;;;;;;;1.80;1.70;;;24.00;62.70;;;;;;5058117;28;20033;-34
2023/08/10 00:27:16;;;;;;;1.73;1.63;;;24.00;62.20;;;;;;5062600;28;20030;-35
2023/08/10 00:29:43;;;;;;;1.67;1.58;;;23.90;62.30;;;;;;5064086;28;20063;-35
2023/08/10 00:32:09;;;;;;;1.80;1.70;;;23.90;62.30;;;;;;5070677;28;20041;-34
2023/08/10 00:34:36;;;;;;;1.75;1.65;;;23.90;61.80;;;;;;5069348;28;20108;-35
2023/08/10 00:37:03;;;;;;;1.63;1.40;;;23.90;61.60;;;;;;5067681;28;20033;-35
2023/08/10 00:39:29;;;;;;;1.65;1.55;;;23.90;61.70;;;;;;5061477;28;20029;-35
2023/08/10 00:41:55;;;;;;;1.60;1.50;;;23.80;61.90;;;;;;5049152;28;20032;-35
2023/08/10 00:44:21;;;;;;;1.92;1.83;;;23.80;61.90;;;;;;5064001;28;20033;-35
2023/08/10 00:46:49;;;;;;;1.70;1.60;;;23.80;62.40;;;;;;5066377;28;20021;-34
2023/08/10 00:49:15;;;;;;;1.80;1.70;;;23.80;62.20;;;;;;5074202;28;20025;-34
2023/08/10 00:51:41;;;;;;;1.70;1.60;;;23.80;62.10;;;;;;5070727;28;20055;-34
2023/08/10 00:54:07;;;;;;;1.63;1.52;;;23.80;62.20;;;;;;5046062;28;20040;-35
2023/08/10 00:56:34;;;;;;;2.05;1.90;;;23.70;62.60;;;;;;5063867;28;20039;-42
2023/08/10 00:59:00;;;;;;;1.90;1.80;;;23.70;62.70;;;;;;5072167;28;20112;-34
2023/08/10 01:01:26;;;;;;;1.85;1.50;;;23.70;63.10;;;;;;5056027;28;20029;-34
2023/08/10 01:03:52;;;;;;;1.67;1.58;;;23.70;63.50;;;;;;5044727;28;20068;-34
2023/08/10 01:06:25;;;;;;;2.67;1.77;;;23.70;62.10;;;;;;5065404;28;20021;-34
2023/08/10 01:09:09;;;;;;;1.75;1.65;;;23.60;61.90;;;;;;5067815;28;20029;-34
2023/08/10 01:11:57;;;;;;;2.10;1.80;;;23.60;61.70;;;;;;5023257;28;20038;-34
2023/08/10 01:14:30;;;;;;;2.65;1.60;;;23.60;61.70;;;;;;5063208;28;20028;-34
2023/08/10 01:16:57;;;;;;;1.60;1.50;;;23.60;61.80;;;;;;5040526;28;20029;-35
2023/08/10 01:19:37;;;;;;;2.10;1.90;;;23.60;62.20;;;;;;5040092;28;20056;-34
2023/08/10 01:22:20;;;;;;;1.88;1.77;;;23.60;61.90;;;;;;5056731;28;20036;-34
2023/08/10 01:25:14;;;;;;;2.00;1.80;;;23.50;61.80;;;;;;5063474;28;20036;-34
2023/08/10 01:27:40;;;;;;;1.95;1.85;;;23.50;61.80;;;;;;5062196;28;20049;-35
2023/08/10 01:30:08;;;;;;;2.97;1.50;;;23.50;61.80;;;;;;5025652;28;20033;-34
2023/08/10 01:32:34;;;;;;;1.50;1.40;;;23.50;61.90;;;;;;5065177;28;20058;-35
2023/08/10 01:35:00;;;;;;;1.70;1.60;;;23.50;61.80;;;;;;5060359;28;20025;-34
2023/08/10 01:37:27;;;;;;;1.60;1.50;;;23.40;61.70;;;;;;5063336;28;20367;-35
2023/08/10 01:39:53;;;;;;;1.60;1.50;;;23.40;61.80;;;;;;5052550;28;20018;-34
2023/08/10 01:42:19;;;;;;;1.58;1.48;;;23.40;61.70;;;;;;5052174;28;20033;-34
2023/08/10 01:44:45;;;;;;;1.50;1.40;;;23.40;61.70;;;;;;5058608;28;20025;-35
2023/08/10 01:47:25;;;;;;;2.55;1.50;;;23.30;61.60;;;;;;5070009;28;20052;-34
2023/08/10 01:49:55;;;;;;;1.70;1.60;;;23.30;61.60;;;;;;5054574;28;20024;-35
2023/08/10 01:52:22;;;;;;;1.73;1.63;;;23.30;61.70;;;;;;5066581;28;20035;-34
2023/08/10 01:54:49;;;;;;;1.88;1.77;;;23.30;64.60;;;;;;5043785;28;20026;-35
2023/08/10 01:57:15;;;;;;;1.75;1.65;;;23.30;66.50;;;;;;5041420;28;20035;-34
2023/08/10 01:59:41;;;;;;;2.75;1.80;;;23.30;67.00;;;;;;5056608;28;20117;-34
2023/08/10 02:02:07;;;;;;;2.13;1.95;;;23.20;67.00;;;;;;5053864;28;20024;-34
2023/08/10 02:04:33;;;;;;;1.75;1.65;;;23.20;67.00;;;;;;5062271;28;20036;-35
2023/08/10 02:07:01;;;;;;;1.87;1.67;;;23.20;67.30;;;;;;5071787;28;20021;-35
2023/08/10 02:09:27;;;;;;;1.80;1.70;;;23.20;67.30;;;;;;5067480;28;20029;-35
2023/08/10 02:11:54;;;;;;;1.85;1.75;;;23.30;67.70;;;;;;5063710;28;20017;-34
2023/08/10 02:14:20;;;;;;;1.88;1.73;;;23.20;67.80;;;;;;5056228;28;20145;-34
2023/08/10 02:16:46;;;;;;;2.00;1.80;;;23.20;68.10;;;;;;5076413;28;20837;-34
2023/08/10 02:19:12;;;;;;;1.70;1.60;;;23.30;68.20;;;;;;5064790;28;20048;-35
2023/08/10 02:21:39;;;;;;;1.83;1.73;;;23.30;68.50;;;;;;5054242;28;20029;-34
2023/08/10 02:24:05;;;;;;;1.70;1.60;;;23.30;68.70;;;;;;5057181;28;20029;-35
2023/08/10 02:26:31;;;;;;;1.80;1.70;;;23.30;68.80;;;;;;5067448;28;20485;-34
2023/08/10 02:28:58;;;;;;;2.63;1.67;;;23.30;68.90;;;;;;5062899;28;20033;-34
2023/08/10 02:31:24;;;;;;;2.08;1.90;;;23.30;69.00;;;;;;5068178;28;20037;-35
2023/08/10 02:33:50;;;;;;;1.93;1.83;;;23.30;69.10;;;;;;5067827;28;20576;-34
2023/08/10 02:36:18;;;;;;;1.60;1.50;;;23.30;69.20;;;;;;5070318;28;20072;-34
2023/08/10 02:38:44;;;;;;;1.75;1.65;;;23.30;69.30;;;;;;5062446;28;20036;-34
2023/08/10 02:41:10;;;;;;;1.80;1.70;;;23.40;69.60;;;;;;5062346;28;20513;-35
2023/08/10 02:43:36;;;;;;;2.78;1.67;;;23.40;69.70;;;;;;5062081;28;20044;-35
2023/08/10 02:46:02;;;;;;;1.70;1.60;;;23.40;69.90;;;;;;5066487;28;20033;-34
2023/08/10 02:48:29;;;;;;;2.50;2.03;;;23.40;70.00;;;;;;5064138;28;20033;-34
2023/08/10 02:50:55;;;;;;;2.13;1.95;;;23.40;70.10;;;;;;5063197;28;20021;-34
2023/08/10 02:53:21;;;;;;;1.70;1.60;;;23.50;70.20;;;;;;5061863;28;20044;-34
2023/08/10 02:55:47;;;;;;;1.67;1.58;;;23.50;70.30;;;;;;5052856;28;20063;-35
2023/08/10 02:58:13;;;;;;;2.30;2.10;;;23.50;70.30;;;;;;5063386;28;20580;-34
2023/08/10 03:00:41;;;;;;;1.92;1.83;;;23.50;70.30;;;;;;5061543;28;20038;-34
2023/08/10 03:03:08;;;;;;;2.15;1.80;;;23.50;70.40;;;;;;5068667;28;20404;-35
2023/08/10 03:05:34;;;;;;;1.83;1.73;;;23.50;70.40;;;;;;5067066;28;20066;-34
2023/08/10 03:08:01;;;;;;;2.03;1.83;;;23.50;70.40;;;;;;5063680;28;20025;-34
2023/08/10 03:10:27;;;;;;;1.80;1.70;;;23.60;70.50;;;;;;5063153;28;20046;-34
2023/08/10 03:12:53;;;;;;;2.40;2.20;;;23.60;70.60;;;;;;5069165;28;20111;-34
2023/08/10 03:15:20;;;;;;;1.90;1.80;;;23.60;70.60;;;;;;5073366;28;20035;-34
2023/08/10 03:17:46;;;;;;;2.03;1.67;;;23.60;70.60;;;;;;5072962;28;20281;-35
2023/08/10 03:20:13;;;;;;;2.23;2.10;;;23.60;70.70;;;;;;5040006;28;20531;-35
2023/08/10 03:22:40;;;;;;;2.05;1.95;;;23.60;70.70;;;;;;5064315;28;20033;-34
2023/08/10 03:25:07;;;;;;;2.20;2.00;;;23.60;70.70;;;;;;5060651;28;20052;-34
2023/08/10 03:27:34;;;;;;;2.30;1.83;;;23.60;70.80;;;;;;5064126;28;20043;-35
2023/08/10 03:30:00;;;;;;;1.98;1.85;;;23.60;70.80;;;;;;5064849;28;20025;-34
2023/08/10 03:32:27;;;;;;;2.27;2.00;;;23.70;70.90;;;;;;5063317;28;20048;-34
2023/08/10 03:34:53;;;;;;;2.00;1.90;;;23.70;71.00;;;;;;5064157;28;20017;-39
2023/08/10 03:37:19;;;;;;;2.00;1.90;;;23.70;70.90;;;;;;5063044;28;20480;-34
2023/08/10 03:39:45;;;;;;;1.98;1.83;;;23.70;71.00;;;;;;5063200;28;20043;-34
2023/08/10 03:42:11;;;;;;;2.28;1.70;;;23.70;71.00;;;;;;5060691;28;20040;-34
2023/08/10 03:44:37;;;;;;;1.80;1.70;;;23.70;71.00;;;;;;5065513;28;20093;-34
2023/08/10 03:47:04;;;;;;;1.90;1.80;;;23.70;71.00;;;;;;5083284;28;20055;-35
2023/08/10 03:49:30;;;;;;;1.83;1.73;;;23.70;71.00;;;;;;5066728;28;20032;-34
2023/08/10 03:51:56;;;;;;;1.85;1.75;;;23.70;71.10;;;;;;5062266;28;20032;-34
2023/08/10 03:54:22;;;;;;;2.00;1.80;;;23.70;71.10;;;;;;5056445;28;20029;-34
2023/08/10 03:56:48;;;;;;;2.00;1.90;;;23.70;71.10;;;;;;5062502;28;20023;-34
2023/08/10 03:59:14;;;;;;;2.30;2.10;;;23.80;71.30;;;;;;5063694;28;20036;-35
2023/08/10 04:01:41;;;;;;;2.10;1.83;;;23.80;71.30;;;;;;5055172;28;20060;-34
2023/08/10 04:04:08;;;;;;;2.78;1.90;;;23.80;71.30;;;;;;5060815;28;20033;-34
2023/08/10 04:06:34;;;;;;;2.00;1.90;;;23.80;71.20;;;;;;5069585;28;20024;-34
2023/08/10 04:09:00;;;;;;;1.80;1.70;;;23.80;71.30;;;;;;5071687;28;20090;-34
2023/08/10 04:11:26;;;;;;;2.00;1.85;;;23.80;71.30;;;;;;5065599;28;20029;-34
2023/08/10 04:13:52;;;;;;;2.47;2.28;;;23.80;71.30;;;;;;5061563;28;20027;-34
2023/08/10 04:16:19;;;;;;;2.35;2.15;;;23.80;72.10;;;;;;5071145;28;20029;-34
2023/08/10 04:18:45;;;;;;;1.83;1.73;;;23.80;71.50;;;;;;5063343;28;20025;-34
2023/08/10 04:21:11;;;;;;;2.20;2.00;;;23.80;71.40;;;;;;5069976;28;20036;-35
2023/08/10 04:23:40;;;;;;;2.15;2.03;;;23.80;71.50;;;;;;5060877;28;20033;-34
2023/08/10 04:26:07;;;;;;;2.13;2.03;;;23.80;71.50;;;;;;5064462;28;20035;-34
2023/08/10 04:28:33;;;;;;;2.40;2.20;;;23.80;71.50;;;;;;5071477;28;20071;-34
2023/08/10 04:31:00;;;;;;;2.20;2.00;;;23.80;71.60;;;;;;5067968;28;20460;-35
2023/08/10 04:33:26;;;;;;;2.10;1.90;;;23.90;71.50;;;;;;5055950;28;20033;-34
2023/08/10 04:35:52;;;;;;;2.58;2.30;;;23.90;71.60;;;;;;5065911;28;20815;-34
2023/08/10 04:38:38;;;;;;;2.50;2.30;;;23.90;71.60;;;;;;4983647;28;20046;-34
2023/08/10 04:41:04;;;;;;;1.88;1.77;;;23.90;71.70;;;;;;4970857;28;20035;-34
2023/08/10 04:43:30;;;;;;;3.40;2.17;;;23.90;71.70;;;;;;4970078;28;20096;-34
2023/08/10 04:45:57;;;;;;;2.97;1.95;;;23.90;71.70;;;;;;4972902;28;20035;-34
2023/08/10 04:48:23;;;;;;;2.33;2.10;;;23.90;71.70;;;;;;4986927;28;20031;-34
2023/08/10 04:50:49;;;;;;;2.33;2.13;;;23.90;71.80;;;;;;4980840;28;20039;-34
2023/08/10 04:53:15;;;;;;;2.25;1.98;;;23.90;72.00;;;;;;4981099;28;20026;-34
2023/08/10 04:55:41;;;;;;;2.72;2.28;;;23.90;72.00;;;;;;4968143;28;20046;-34
2023/08/10 04:58:08;;;;;;;2.40;2.20;;;24.00;71.90;;;;;;4975995;28;20085;-34
2023/08/10 05:00:34;;;;;;;2.30;2.10;;;24.00;71.90;;;;;;4974591;28;20030;-34
2023/08/10 05:03:00;;;;;;;2.40;2.20;;;24.00;71.90;;;;;;4972577;28;20472;-34
2023/08/10 05:05:26;;;;;;;2.40;2.20;;;24.00;71.90;;;;;;4974523;28;20062;-35
2023/08/10 05:07:52;;;;;;;2.35;2.15;;;24.00;71.90;;;;;;4979271;28;20051;-34
2023/08/10 05:10:19;;;;;;;2.50;2.30;;;24.00;71.90;;;;;;4974997;28;20058;-35
2023/08/10 05:12:45;;;;;;;2.40;2.20;;;24.00;71.90;;;;;;4965512;28;20027;-35
2023/08/10 05:15:11;;;;;;;2.40;2.20;;;24.00;72.00;;;;;;4994832;28;20040;-36
2023/08/10 05:17:41;;;;;;;2.10;2.00;;;24.00;72.00;;;;;;5069441;28;20115;-34
2023/08/10 05:20:11;;;;;;;2.50;2.30;;;24.00;72.00;;;;;;5076402;28;20052;-34
2023/08/10 05:22:41;;;;;;;2.40;2.10;;;24.00;72.00;;;;;;5073147;28;20116;-34
2023/08/10 05:25:11;;;;;;;2.30;2.05;;;24.00;72.10;;;;;;5071191;28;20100;-34
2023/08/10 05:27:38;;;;;;;2.42;2.22;;;24.00;72.10;;;;;;5077315;28;20025;-34
2023/08/10 05:30:08;;;;;;;3.10;2.20;;;24.00;72.00;;;;;;5076125;28;20027;-34
2023/08/10 05:32:36;;;;;;;4.47;1.90;;;24.00;72.00;;;;;;5052495;28;20061;-34
2023/08/10 05:35:03;;;;;;;2.13;2.03;;;24.00;72.00;;;;;;5040704;28;20089;-34
2023/08/10 05:37:30;;;;;;;2.47;2.28;;;24.00;72.00;;;;;;5058669;28;20025;-34
2023/08/10 05:39:56;;;;;;;;;;;24.00;72.00;;;;;;5035341;28;20117;-35
2023/08/10 05:42:22;;;;;;;2.45;2.25;;;24.00;72.10;;;;;;5041112;28;19921;-35
2023/08/10 05:44:48;;;;;;;2.90;2.17;;;24.00;72.10;;;;;;5049549;28;20555;-36
2023/08/10 05:47:14;;;;;;;2.38;2.17;;;24.10;72.30;;;;;;5050606;28;20049;-36
2023/08/10 05:49:40;;;;;;;2.00;1.90;;;24.10;72.30;;;;;;5050434;28;20029;-36
2023/08/10 05:52:06;;;;;;;2.08;1.92;;;24.00;72.20;;;;;;5040841;28;20034;-35
2023/08/10 05:54:33;;;;;;;2.40;2.20;;;24.00;72.20;;;;;;5037424;28;20113;-35
2023/08/10 05:56:59;;;;;;;2.50;2.30;;;24.10;72.30;;;;;;5053761;28;20110;-35
2023/08/10 05:59:25;;;;;;;2.30;2.10;;;24.10;72.30;;;;;;5045484;28;20096;-36
2023/08/10 06:01:51;;;;;;;2.38;2.17;;;24.10;72.30;;;;;;5045335;28;20025;-35
2023/08/10 06:04:18;;;;;;;2.50;2.30;;;24.10;72.40;;;;;;5044448;28;20053;-35
2023/08/10 06:06:46;;;;;;;3.60;2.28;;;24.10;72.30;;;;;;5032221;28;20053;-36
2023/08/10 06:09:12;;;;;;;3.15;2.30;;;24.10;72.40;;;;;;5044870;28;20041;-35
2023/08/10 06:11:39;;;;;;;2.70;2.50;;;24.10;72.40;;;;;;5054517;28;20040;-35
2023/08/10 06:14:05;;;;;;;;;;;24.10;72.50;;;;;;5054329;28;20069;-35
2023/08/10 06:16:31;;;;;;;2.53;2.33;;;24.10;72.50;;;;;;5046166;28;19913;-35
2023/08/10 06:18:58;;;;;;;2.28;2.10;;;24.10;72.50;;;;;;5041618;28;20029;-35
2023/08/10 06:21:24;;;;;;;2.33;2.15;;;24.10;72.50;;;;;;5047540;28;20034;-35
2023/08/10 06:23:50;;;;;;;2.50;2.30;;;24.10;72.60;;;;;;5040690;28;20038;-36
2023/08/10 06:26:16;;;;;;;2.40;2.20;;;24.10;72.60;;;;;;5041861;28;20127;-35
2023/08/10 06:28:43;;;;;;;2.42;2.22;;;24.10;72.50;;;;;;5041155;28;20037;-35
2023/08/10 06:31:10;;;;;;;2.40;2.20;;;24.10;72.60;;;;;;5049989;28;20257;-36
2023/08/10 06:33:36;;;;;;;3.15;2.55;;;24.10;72.50;;;;;;5061518;28;20688;-35
2023/08/10 06:36:06;;;;;;;2.33;2.13;;;24.10;72.60;;;;;;5067322;28;20021;-36
2023/08/10 06:38:35;;;;;;;2.42;2.22;;;24.10;72.60;;;;;;5041735;28;20107;-35
2023/08/10 06:41:01;;;;;;;2.70;2.50;;;24.10;72.60;;;;;;5064572;28;20036;-35
2023/08/10 06:43:28;;;;;;;2.50;2.20;;;24.10;72.60;;;;;;5069524;28;20025;-35
2023/08/10 06:45:55;;;;;;;2.60;2.30;;;24.10;72.60;;;;;;5054997;28;20041;-35
2023/08/10 06:48:21;;;;;;;2.60;2.40;;;24.10;72.60;;;;;;5044558;28;20712;-35
2023/08/10 06:50:48;;;;;;;2.35;2.15;;;24.10;72.60;;;;;;5065672;28;20285;-35
2023/08/10 06:53:14;;;;;;;2.10;1.90;;;24.10;72.60;;;;;;5071687;28;20020;-35
2023/08/10 06:55:42;;;;;;;2.30;2.10;;;24.10;72.60;;;;;;5063527;28;20070;-36
2023/08/10 06:58:08;;;;;;;2.95;2.00;;;24.10;72.70;;;;;;5042380;28;20017;-35
2023/08/10 07:00:36;;;;;;;2.40;2.20;;;24.10;72.80;;;;;;5071861;28;20173;-36
2023/08/10 07:03:02;;;;;;;2.10;1.90;;;24.10;72.90;;;;;;5072084;28;20037;-35
2023/08/10 07:05:29;;;;;;;2.33;2.13;;;24.10;72.90;;;;;;5064665;28;20027;-36
2023/08/10 07:07:55;;;;;;;2.50;2.30;;;24.10;72.80;;;;;;5066846;28;20021;-36
2023/08/10 07:10:22;;;;;;;2.10;1.90;;;24.10;72.80;;;;;;5074376;28;20089;-36
2023/08/10 07:12:48;;;;;;;1.90;1.80;;;24.10;72.70;;;;;;5063192;28;20033;-35
2023/08/10 07:15:17;;;;;;;2.33;2.13;;;24.10;72.70;;;;;;5057680;28;20025;-35
2023/08/10 07:17:43;;;;;;;1.92;1.80;;;24.10;72.70;;;;;;5074130;28;20033;-37
2023/08/10 07:20:10;;;;;;;2.60;2.40;;;24.10;72.70;;;;;;5070955;28;20025;-36
2023/08/10 07:22:36;;;;;;;2.55;2.20;;;24.10;72.70;;;;;;5064444;28;20041;-35
2023/08/10 07:25:05;;;;;;;2.37;2.17;;;24.10;72.70;;;;;;5068277;28;20040;-35
2023/08/10 07:27:34;;;;;;;2.05;1.92;;;24.10;73.40;;;;;;5058605;28;20377;-36
2023/08/10 07:30:03;;;;;;;2.50;2.30;;;24.10;72.70;;;;;;5068220;28;20062;-35
2023/08/10 07:32:29;;;;;;;2.10;1.88;;;24.10;72.70;;;;;;5064465;28;20519;-35
2023/08/10 07:34:55;;;;;;;1.80;1.70;;;24.10;72.70;;;;;;5064482;28;20021;-35
2023/08/10 07:37:21;;;;;;;3.22;2.30;;;24.10;72.70;;;;;;5080647;28;20127;-35
2023/08/10 07:39:47;;;;;;;2.08;1.63;;;24.10;72.80;;;;;;5080494;28;20747;-35
2023/08/10 07:42:14;;;;;;;2.30;2.10;;;24.10;72.80;;;;;;5069123;28;20696;-35
2023/08/10 07:44:40;;;;;;;2.23;2.03;;;24.10;72.80;;;;;;5071446;28;20101;-36
2023/08/10 07:47:06;;;;;;;3.20;1.77;;;24.10;72.80;;;;;;5070852;28;20020;-35
2023/08/10 07:49:32;;;;;;;2.33;2.13;;;24.10;72.80;;;;;;5067049;28;20601;-35
2023/08/10 07:51:59;;;;;;;2.20;2.00;;;24.10;72.80;;;;;;5064834;28;20071;-36
2023/08/10 07:54:25;;;;;;;2.22;2.03;;;24.10;72.80;;;;;;5069435;28;20028;-36
2023/08/10 07:56:52;;;;;;;2.40;2.20;;;24.10;72.90;;;;;;5058959;28;20623;-36
2023/08/10 07:59:18;;;;;;;2.13;1.93;;;24.10;72.90;;;;;;5059981;28;20037;-35
2023/08/10 08:01:44;;;;;;;1.92;1.83;;;24.10;72.90;;;;;;5066143;28;20028;-35
2023/08/10 08:04:12;;;;;;;2.40;2.10;;;24.10;73.00;;;;;;5069373;28;20060;-35
2023/08/10 08:06:38;;;;;;;2.03;1.90;;;24.10;73.00;;;;;;5066013;28;20036;-35
2023/08/10 08:09:06;;;;;;;2.17;2.03;;;24.10;73.00;;;;;;5070921;28;20021;-36
2023/08/10 08:11:34;;;;;;;2.00;1.90;;;24.10;73.00;;;;;;5071267;28;20044;-36
2023/08/10 08:14:01;;;;;;;2.42;2.22;;;24.10;73.00;;;;;;5057155;28;20100;-35
2023/08/10 08:16:28;;;;;;;2.22;2.08;;;24.10;73.10;;;;;;5064505;28;20040;-35
2023/08/10 08:18:55;;;;;;;2.17;1.97;;;24.10;73.00;;;;;;5063634;28;20111;-35
2023/08/10 08:21:21;;;;;;;;;;;24.10;73.00;;;;;;5063052;28;20063;-36
2023/08/10 08:23:47;;;;;;;2.13;1.92;;;24.10;73.10;;;;;;5061980;28;19927;-35
2023/08/10 08:26:14;;;;;;;2.30;2.10;;;24.10;73.20;;;;;;5056648;28;20079;-35
2023/08/10 08:28:41;;;;;;;2.40;2.20;;;24.10;73.20;;;;;;5062653;28;20028;-35
2023/08/10 08:31:07;;;;;;;2.20;2.10;;;24.10;73.20;;;;;;5063811;28;20547;-36
2023/08/10 08:33:34;;;;;;;2.50;2.10;;;24.10;73.30;;;;;;5063602;28;20505;-36
2023/08/10 08:36:00;;;;;;;2.50;2.30;;;24.10;73.30;;;;;;5059674;28;20029;-35
2023/08/10 08:38:27;;;;;;;2.30;2.10;;;24.10;73.30;;;;;;5068591;28;20036;-35
2023/08/10 08:40:54;;;;;;;;;;;24.10;73.40;;;;;;5065237;28;20037;-35
2023/08/10 08:43:20;;;;;;;2.17;1.98;;;24.10;73.30;;;;;;5063852;28;19920;-35
2023/08/10 08:45:46;;;;;;;2.65;2.10;;;24.10;73.30;;;;;;5063502;28;20078;-35
2023/08/10 08:48:16;;;;;;;2.20;2.00;;;24.10;73.30;;;;;;5056889;28;20029;-36
2023/08/10 08:50:44;;;;;;;2.10;1.90;;;24.10;73.30;;;;;;5060998;28;21470;-35
2023/08/10 08:53:10;;;;;;;2.20;2.00;;;24.10;73.40;;;;;;5057942;28;20063;-35
2023/08/10 08:55:38;;;;;;;2.15;1.95;;;24.10;73.30;;;;;;5043442;28;20438;-35
2023/08/10 08:58:04;;;;;;;1.80;1.70;;;24.10;73.40;;;;;;5038083;28;20029;-35
2023/08/10 09:00:31;;;;;;;2.03;1.93;;;24.10;73.40;;;;;;5064511;28;20036;-36
2023/08/10 09:02:58;;;;;;;;;;;24.10;73.30;;;;;;5066463;28;20053;-35
2023/08/10 09:05:24;;;;;;;2.00;1.90;;;24.10;73.40;;;;;;5070124;28;19914;-35
2023/08/10 09:07:53;;;;;;;2.08;1.88;;;24.10;73.40;;;;;;5071668;28;20115;-36
2023/08/10 09:10:20;;;;;;;2.20;2.00;;;24.10;73.40;;;;;;5072058;28;20051;-35
2023/08/10 09:12:47;;;;;;;2.00;1.90;;;24.10;73.40;;;;;;5067946;28;20056;-36
2023/08/10 09:15:14;;;;;;;2.50;2.30;;;24.10;73.50;;;;;;5058852;28;20031;-35
2023/08/10 09:17:53;;;;;;;2.20;2.00;;;24.10;73.50;;;;;;5063971;28;20024;-35
2023/08/10 09:20:20;;;;;;;2.05;1.95;;;24.10;73.70;;;;;;5048913;28;20029;-35
2023/08/10 09:22:46;;;;;;;1.90;1.73;;;24.10;73.60;;;;;;5067845;28;20021;-35
2023/08/10 09:25:12;;;;;;;1.95;1.85;;;24.10;73.60;;;;;;5037326;28;20036;-35
2023/08/10 09:27:39;;;;;;;2.87;2.30;;;24.10;73.70;;;;;;5056581;28;20116;-35
2023/08/10 09:30:06;;;;;;;1.83;1.73;;;24.10;73.70;;;;;;5061347;28;20029;-35
2023/08/10 09:32:33;;;;;;;2.83;1.73;;;24.10;73.70;;;;;;5062964;28;20060;-35
2023/08/10 09:34:59;;;;;;;1.95;1.85;;;24.10;73.70;;;;;;5057781;28;20074;-35
2023/08/10 09:37:25;;;;;;;1.97;1.87;;;24.10;73.70;;;;;;5037127;28;20037;-35
2023/08/10 09:40:05;;;;;;;1.67;1.57;;;24.10;73.70;;;;;;5072975;28;20031;-36
2023/08/10 09:42:31;;;;;;;1.85;1.75;;;24.10;73.70;;;;;;5052192;28;20278;-35
2023/08/10 09:44:58;;;;;;;2.00;1.90;;;24.10;73.70;;;;;;5064442;28;20060;-35
2023/08/10 09:47:25;;;;;;;1.90;1.80;;;24.10;73.70;;;;;;5044047;28;20108;-35
2023/08/10 09:50:00;;;;;;;2.22;2.00;;;24.10;73.70;;;;;;5054364;28;20029;-36
2023/08/10 09:52:27;;;;;;;1.83;1.73;;;24.10;73.80;;;;;;5053715;28;20021;-35
2023/08/10 09:54:54;;;;;;;2.03;1.90;;;24.10;73.70;;;;;;5071028;28;20029;-36
2023/08/10 09:57:20;;;;;;;2.65;1.98;;;24.10;73.80;;;;;;5058601;28;20028;-35
2023/08/10 09:59:47;;;;;;;2.23;1.90;;;24.10;73.80;;;;;;5064571;28;20024;-35
2023/08/10 10:02:14;;;;;;;2.15;2.05;;;24.10;73.80;;;;;;5065034;28;20325;-35
2023/08/10 10:04:40;;;;;;;2.40;2.03;;;24.10;73.80;;;;;;5055808;28;20038;-36
2023/08/10 10:07:07;;;;;;;2.05;1.90;;;24.10;73.90;;;;;;5060398;28;20036;-36
2023/08/10 10:09:37;;;;;;;;;;;24.10;73.90;;;;;;5066184;28;20052;-35
2023/08/10 10:12:07;;;;;;;1.90;1.80;;;24.10;73.90;;;;;;5043846;28;19924;-35
2023/08/10 10:14:35;;;;;;;1.90;1.80;;;24.10;74.00;;;;;;5063677;28;20037;-35
2023/08/10 10:17:02;;;;;;;2.10;1.85;;;24.10;74.00;;;;;;5057170;28;20112;-35
2023/08/10 10:19:29;;;;;;;;;;;24.10;74.00;;;;;;5046047;28;20029;-35
2023/08/10 10:21:55;;;;;;;3.00;2.00;;;24.10;73.90;;;;;;5063156;28;19919;-35
2023/08/10 10:24:21;;;;;;;2.53;2.10;;;24.10;74.00;;;;;;5062579;28;20139;-35
2023/08/10 10:27:00;;;;;;;1.92;1.73;;;24.10;74.00;;;;;;5061228;28;20029;-35
2023/08/10 10:29:49;;;;;;;2.58;1.67;;;24.10;74.10;;;;;;5061802;28;20791;-35
2023/08/10 10:32:16;;;;;;;2.10;2.00;;;24.10;74.10;;;;;;5048914;28;20045;-35
2023/08/10 10:34:42;;;;;;;2.40;2.20;;;24.10;74.00;;;;;;5069279;28;20037;-35
2023/08/10 10:37:21;;;;;;;2.03;1.92;;;24.10;74.10;;;;;;5067750;28;20456;-35
2023/08/10 10:39:53;;;;;;;2.28;2.08;;;24.10;74.10;;;;;;5067518;28;20025;-35
2023/08/10 10:42:20;;;;;;;3.42;2.50;;;24.10;74.20;;;;;;5061789;28;20021;-35
2023/08/10 10:45:00;;;;;;;2.50;2.30;;;24.10;74.30;;;;;;5064715;28;20032;-35
2023/08/10 10:47:37;;;;;;;2.42;2.13;;;24.10;74.40;;;;;;5062152;28;20584;-35
2023/08/10 10:50:24;;;;;;;2.10;2.00;;;24.10;74.40;;;;;;5069109;28;20393;-35
2023/08/10 10:53:01;;;;;;;2.50;2.30;;;24.10;74.50;;;;;;5041259;28;20570;-36
2023/08/10 10:55:44;;;;;;;2.45;2.25;;;24.10;74.40;;;;;;5059403;28;20051;-35
2023/08/10 10:58:11;;;;;;;3.03;2.40;;;24.10;74.40;;;;;;5062560;28;20037;-35
2023/08/10 11:00:38;;;;;;;2.90;2.03;;;24.10;74.50;;;;;;5056131;28;20040;-35
2023/08/10 11:03:05;;;;;;;2.80;2.10;;;24.10;74.50;;;;;;5056468;28;20037;-36
2023/08/10 11:05:31;;;;;;;2.67;2.40;;;24.10;74.50;;;;;;5061456;28;20293;-35
2023/08/10 11:08:03;;;;;;;3.75;2.38;;;24.10;74.40;;;;;;5049927;28;20025;-36
2023/08/10 11:10:31;;;;;;;2.40;2.20;;;24.10;74.50;;;;;;5044321;28;20029;-34
2023/08/10 11:12:57;;;;;;;2.50;2.10;;;24.10;74.50;;;;;;5064299;28;20025;-35
2023/08/10 11:15:24;;;;;;;2.53;2.33;;;24.10;74.40;;;;;;5059519;28;20044;-35
2023/08/10 11:17:53;;;;;;;3.37;2.13;;;24.10;74.50;;;;;;5060992;28;20052;-36
2023/08/10 11:20:20;;;;;;;2.72;2.33;;;24.20;74.70;;;;;;5061338;28;20028;-35
2023/08/10 11:22:48;;;;;;;2.63;2.42;;;24.10;74.60;;;;;;5058382;28;20040;-36
2023/08/10 11:25:15;;;;;;;2.33;2.00;;;24.20;74.80;;;;;;5056443;28;20029;-35
2023/08/10 11:27:43;;;;;;;2.65;2.45;;;24.20;75.00;;;;;;5062557;28;20029;-36
2023/08/10 11:30:10;;;;;;;2.30;2.10;;;24.20;75.00;;;;;;5068663;28;20070;-35
2023/08/10 11:32:49;;;;;;;2.83;2.60;;;24.20;75.00;;;;;;5056680;28;20739;-36
2023/08/10 11:35:18;;;;;;;2.30;2.10;;;24.20;75.10;;;;;;5058410;28;20032;-35
2023/08/10 11:37:44;;;;;;;2.33;2.13;;;24.20;75.10;;;;;;5071748;28;20044;-35
2023/08/10 11:40:11;;;;;;;3.95;2.47;;;24.20;75.20;;;;;;5060456;28;20043;-35
2023/08/10 11:42:42;;;;;;;2.40;2.20;;;24.20;75.40;;;;;;5064527;28;20032;-35
2023/08/10 11:45:20;;;;;;;2.20;2.00;;;24.20;75.30;;;;;;5072780;28;20056;-35
2023/08/10 11:48:01;;;;;;;2.97;2.15;;;24.20;75.20;;;;;;5064526;28;20064;-36
2023/08/10 11:50:31;;;;;;;2.60;2.40;;;24.20;75.10;;;;;;5050030;28;20391;-36
2023/08/10 11:53:00;;;;;;;2.40;2.20;;;24.20;75.20;;;;;;5072297;28;20028;-35
2023/08/10 11:55:27;;;;;;;2.08;1.98;;;24.20;75.20;;;;;;5067788;28;20063;-35
2023/08/10 11:57:54;;;;;;;;;;;24.20;75.30;;;;;;5061454;28;20136;-36
2023/08/10 12:00:33;;;;;;;2.08;1.98;;;24.20;75.20;;;;;;5056897;28;19913;-36
2023/08/10 12:03:07;;;;;;;2.42;2.20;;;24.20;75.20;;;;;;5048868;28;20064;-36
2023/08/10 12:05:53;;;;;;;2.22;1.90;;;24.20;75.20;;;;;;5056102;28;20101;-36
2023/08/10 12:08:23;;;;;;;2.65;2.20;;;24.20;75.20;;;;;;5058707;28;20079;-36
2023/08/10 12:11:04;;;;;;;3.47;2.40;;;24.20;75.30;;;;;;5065921;28;20074;-35
2023/08/10 12:13:30;;;;;;;2.70;2.10;;;24.20;75.30;;;;;;5070923;28;20028;-35
2023/08/10 12:15:58;;;;;;;2.33;2.00;;;24.20;75.40;;;;;;5057801;28;20036;-35
2023/08/10 12:18:25;;;;;;;2.10;1.90;;;24.20;75.30;;;;;;5059423;28;20052;-35
2023/08/10 12:20:52;;;;;;;2.20;2.00;;;24.20;75.40;;;;;;5072520;28;21028;-35
2023/08/10 12:23:19;;;;;;;2.10;1.90;;;24.20;75.30;;;;;;5058005;28;20041;-36
2023/08/10 12:25:48;;;;;;;3.38;2.10;;;24.20;75.40;;;;;;5055568;28;20047;-35
2023/08/10 12:28:16;;;;;;;1.83;1.73;;;24.20;75.30;;;;;;5064994;28;20032;-35
2023/08/10 12:30:44;;;;;;;2.00;1.90;;;24.20;75.30;;;;;;5049460;28;20041;-35
2023/08/10 12:33:11;;;;;;;1.70;1.60;;;24.20;75.30;;;;;;5036042;28;20071;-35
2023/08/10 12:35:37;;;;;;;1.80;1.70;;;24.20;75.30;;;;;;5045639;28;20037;-35
2023/08/10 12:38:04;;;;;;;2.35;1.70;;;24.20;75.30;;;;;;5044594;28;20067;-35
2023/08/10 12:40:31;;;;;;;1.98;1.85;;;24.20;75.30;;;;;;5044927;28;20064;-35
2023/08/10 12:42:58;;;;;;;1.88;1.75;;;24.20;75.30;;;;;;5036591;28;20089;-35
2023/08/10 12:45:25;;;;;;;2.10;1.90;;;24.20;75.20;;;;;;5046913;28;20026;-36
2023/08/10 12:47:51;;;;;;;1.70;1.60;;;24.20;75.30;;;;;;5044586;28;20044;-35
2023/08/10 12:50:18;;;;;;;1.90;1.80;;;24.20;75.30;;;;;;5042450;28;20041;-35